Wichita Mid Continent Airport
KICT : now visible

Airfield :











YOU CAN JOIN US ON...

 
LOGIN :

Register | Disclaimer

   EN    FR    IT 

 









Legend :    VFR   Marginal VFR   IFR   Intensive IFR   Very Intensive IFR
Visi :
Ceiling :
>= 8 km
>= 3000ft
5 to 8 km
1000 to 3000 ft
1500m to 5 km
500 to 1000 ft
800 to 1500m
200 to 500 ft
< 800m
< 200 ft
Symbols :   Thunderstorms  Fog  Heavy snow  Heavy precipitations  Wind > 20 kt






- Airport Elevation : 1333 ft
- IATA code : ICT


KICT - Wichita Mid Continent

CURRENT METAR :
  • 191753Z 08009KT 10SM OVC080 03/M05 A3045 RMK AO2 SLP320 T00331050 10039 21011 58005

EXPIRED METARs :
  • 191653Z 12007KT 10SM OVC085 02/M05 A3046 RMK AO2 SLP327 T00221050
  • 191553Z 11008KT 10SM OVC090 02/M05 A3047 RMK AO2 SLP328 T00171050

TAF KICT
Valid from the 19 at 18:00 until the 20 at 18:00 UTC


191734Z 1918/2018 08007KT P6SM OVC090
FM192300 08005KT P6SM VCSH OVC050
FM200200 05005KT P6SM -SNRA OVC030
FM200400 03007KT 3SM -SN OVC008
FM201100 03011KT 4SM BR OVC010
FM201400 02011KT P6SM OVC025



MET'MAP, your aeronautical weather chart ! - Copyright ORBIFLY December 2007 - Disclaimer

ORBIFLY MET'MAP TEAM :

Programming & Development : Alexandra Zaïnal
Concept & original design : Baudouin d'Aumeries
Assistance for programming : Marc-Olivier Méhu
Technical & hardware support : Manuel Goepfert

Contact : metmap@orbifly.com




SOURCES & CREDITS :

   NOAA       Earth
Advisory